Time;durP1;ratioP1;P1;durP2;ratioP2;P2;SDS_P1;SDS_P2;PMS_P1;PMS_P2;Temp;Humidity;BMP_temperature;BMP_pressure;BME280_temperature;BME280_humidity;BME280_pressure;Samples;Min_cycle;Max_cycle;Signal;HPM_P1;HPM_P2
2021/08/22 00:00:26;;;;;;;;;0.00;0.00;;;;;20.12;66.74;101421.72;5062936;28;45372;-82
2021/08/22 00:02:51;;;;;;;;;0.00;0.00;;;;;19.44;67.05;101308.56;5062090;28;45559;-82
2021/08/22 00:05:17;;;;;;;;;0.00;0.00;;;;;20.11;66.70;101414.69;5065282;28;46242;-81
2021/08/22 00:07:42;;;;;;;;;1.00;0.00;;;;;19.79;67.51;101369.53;5059788;28;45424;-81
2021/08/22 00:10:08;;;;;;;;;0.00;0.00;;;;;19.62;67.06;101332.88;5054954;27;45396;-82
2021/08/22 00:12:33;;;;;;;;;0.00;0.00;;;;;19.95;67.45;101385.94;5043779;28;45426;-82
2021/08/22 00:14:59;;;;;;;;;0.00;0.00;;;;;19.75;67.19;101344.94;5053836;28;45366;-81
2021/08/22 00:17:24;;;;;;;;;1.50;0.00;;;;;19.59;67.53;101309.16;5054571;28;45280;-83
2021/08/22 00:19:49;;;;;;;;;0.00;0.00;;;;;19.98;67.04;101374.41;5042920;28;45391;-82
2021/08/22 00:22:14;;;;;;;;;0.00;0.00;;;;;19.81;67.49;101351.00;5048168;28;45587;-83
2021/08/22 00:24:40;;;;;;;;;0.00;0.00;;;;;19.80;67.56;101349.25;5046704;28;47297;-83
2021/08/22 00:27:06;;;;;;;;;0.00;0.00;;;;;20.14;67.50;101412.00;5042412;28;45510;-81
2021/08/22 00:29:31;;;;;;;;;0.00;0.00;;;;;20.09;67.30;101403.31;5038324;28;45498;-83
2021/08/22 00:31:57;;;;;;;;;0.00;0.00;;;;;20.10;67.61;101405.03;5053817;28;45479;-81
2021/08/22 00:34:22;;;;;;;;;0.00;0.00;;;;;20.13;67.46;101420.84;5051337;28;46711;-81
2021/08/22 00:36:47;;;;;;;;;0.00;0.00;;;;;19.49;67.81;101309.38;5049944;28;45557;-82
2021/08/22 00:39:13;;;;;;;;;0.00;0.00;;;;;20.11;67.28;101415.56;5045691;28;45907;-81
2021/08/22 00:41:39;;;;;;;;;2.00;0.00;;;;;19.78;67.64;101372.19;5047453;28;45406;-81
2021/08/22 00:44:04;;;;;;;;;0.00;0.00;;;;;19.31;67.96;101302.66;5057943;28;45684;-81
2021/08/22 00:46:31;;;;;;;;;0.00;0.00;;;;;19.75;68.43;101391.59;5043434;28;45413;-81
2021/08/22 00:48:57;;;;;;;;;2.00;0.00;;;;;19.69;68.28;101381.16;5048680;28;45455;-81
2021/08/22 00:51:22;;;;;;;;;0.50;0.00;;;;;19.93;68.32;101421.19;5041919;28;45505;-81
2021/08/22 00:53:48;;;;;;;;;0.00;0.00;;;;;19.69;68.43;101397.88;5039297;28;46102;-81
2021/08/22 00:56:16;;;;;;;;;0.00;0.00;;;;;19.29;68.41;101335.28;5051545;28;45282;-82
2021/08/22 00:58:42;;;;;;;;;0.00;0.00;;;;;19.47;68.23;101363.97;5043078;28;45790;-81
2021/08/22 01:01:15;;;;;;;;;0.00;0.00;;;;;19.74;68.29;101406.59;5042485;28;45285;-81
2021/08/22 01:03:53;;;;;;;;;0.00;0.00;;;;;19.83;68.58;101428.44;5042562;28;45539;-81
2021/08/22 01:06:24;;;;;;;;;0.00;0.00;;;;;19.86;68.93;101433.66;5038763;28;45459;-80
2021/08/22 01:09:19;;;;;;;;;0.00;0.00;;;;;19.85;68.29;101432.78;5054380;28;45530;-81
2021/08/22 01:11:46;;;;;;;;;0.00;0.00;;;;;19.66;68.07;101405.84;5016703;28;45240;-83
2021/08/22 01:14:14;;;;;;;;;1.00;1.00;;;;;19.84;68.39;101438.09;5053714;28;47303;-82
2021/08/22 01:16:52;;;;;;;;;0.00;0.00;;;;;18.95;68.44;101292.72;5042327;28;45427;-81
2021/08/22 01:19:26;;;;;;;;;0.00;0.00;;;;;19.74;68.30;101438.28;5042270;28;45436;-82
2021/08/22 01:21:53;;;;;;;;;0.00;0.00;;;;;19.76;68.38;101435.63;5043883;28;45626;-82
2021/08/22 01:24:22;;;;;;;;;0.00;0.00;;;;;19.59;68.38;101418.31;5050549;28;46699;-82
2021/08/22 01:26:49;;;;;;;;;0.00;0.00;;;;;19.27;68.08;101374.88;5054182;28;45474;-82
2021/08/22 01:29:48;;;;;;;;;0.00;0.00;;;;;19.44;68.08;101402.72;5053278;28;45627;-83
2021/08/22 01:32:13;;;;;;;;;0.00;0.00;;;;;19.08;67.68;101369.06;5022016;28;45550;-82
2021/08/22 01:34:41;;;;;;;;;0.00;0.00;;;;;19.65;67.64;101441.09;5042207;28;45435;-82
2021/08/22 01:37:07;;;;;;;;;0.00;0.00;;;;;19.45;67.70;101423.81;5042197;28;45476;-84
2021/08/22 01:39:35;;;;;;;;;0.50;0.00;;;;;19.52;67.71;101432.53;5042204;28;45458;-83
2021/08/22 01:42:00;;;;;;;;;0.00;0.00;;;;;19.48;67.83;101442.25;5052757;28;45491;-83
2021/08/22 01:44:28;;;;;;;;;0.00;0.00;;;;;18.97;67.89;101362.16;5052627;28;45474;-82
2021/08/22 01:46:53;;;;;;;;;0.00;0.00;;;;;19.33;67.52;101416.97;5052585;28;45417;-82
2021/08/22 01:49:20;;;;;;;;;0.00;0.00;;;;;19.34;67.87;101428.44;5045275;28;45377;-82
2021/08/22 01:51:46;;;;;;;;;0.00;0.00;;;;;19.19;67.87;101411.97;5043771;28;45459;-82
2021/08/22 01:54:11;;;;;;;;;2.25;0.00;;;;;18.94;68.05;101358.69;5053019;28;46210;-82
2021/08/22 01:56:38;;;;;;;;;0.25;0.25;;;;;18.89;67.39;101355.28;5054925;28;45450;-82
2021/08/22 01:59:04;;;;;;;;;0.00;0.00;;;;;18.94;67.90;101366.59;5052401;28;45489;-83
2021/08/22 02:01:30;;;;;;;;;0.00;0.00;;;;;19.12;67.96;101387.44;5041073;28;45612;-83
2021/08/22 02:04:09;;;;;;;;;1.50;0.75;;;;;19.29;67.69;101414.44;5041781;28;46209;-82
2021/08/22 02:06:49;;;;;;;;;0.00;0.00;;;;;19.23;67.69;101425.97;5041430;28;45560;-83
2021/08/22 02:09:20;;;;;;;;;0.00;0.00;;;;;19.17;68.18;101431.38;5041777;28;45436;-82
2021/08/22 02:11:54;;;;;;;;;0.00;0.00;;;;;18.77;67.57;101362.47;5039157;28;45337;-83
2021/08/22 02:14:23;;;;;;;;;0.00;0.00;;;;;19.07;67.84;101417.41;5052332;28;46136;-83
2021/08/22 02:16:51;;;;;;;;;0.00;0.00;;;;;19.23;67.95;101442.69;5051693;28;45487;-82
2021/08/22 02:19:18;;;;;;;;;0.00;0.00;;;;;19.32;67.94;101462.75;5049955;28;45634;-82
2021/08/22 02:21:44;;;;;;;;;0.00;0.00;;;;;19.30;67.69;101467.22;5049893;28;45440;-82
2021/08/22 02:24:10;;;;;;;;;0.00;0.00;;;;;18.97;67.42;101419.31;5048997;28;46499;-83
2021/08/22 02:26:35;;;;;;;;;0.00;0.00;;;;;19.29;67.52;101469.88;5053684;28;45447;-83
2021/08/22 02:29:01;;;;;;;;;0.00;0.00;;;;;19.27;67.53;101475.19;5039073;28;45398;-82
2021/08/22 02:31:28;;;;;;;;;0.00;0.00;;;;;18.94;67.24;101411.44;5050049;28;45352;-82
2021/08/22 02:33:54;;;;;;;;;0.00;0.00;;;;;18.51;67.22;101347.94;5050647;28;46240;-81
2021/08/22 02:36:20;;;;;;;;;0.00;0.00;;;;;19.03;66.90;101431.53;5050113;28;46086;-82
2021/08/22 02:38:45;;;;;;;;;0.00;0.00;;;;;18.68;67.25;101373.19;5040943;28;45238;-83
2021/08/22 02:41:11;;;;;;;;;0.00;0.00;;;;;19.04;67.38;101434.16;5044291;28;45405;-83
2021/08/22 02:43:36;;;;;;;;;1.00;0.00;;;;;19.19;67.14;101456.81;5044687;28;45495;-83
2021/08/22 02:46:02;;;;;;;;;0.00;0.00;;;;;18.90;66.95;101423.84;5048031;28;46026;-82
2021/08/22 02:48:28;;;;;;;;;0.00;0.00;;;;;19.02;66.40;101446.47;5053224;28;45367;-82
2021/08/22 02:50:53;;;;;;;;;0.00;0.00;;;;;18.92;66.55;101444.88;5056316;28;45407;-83
2021/08/22 02:53:18;;;;;;;;;1.00;0.00;;;;;18.94;66.90;101451.91;5055580;28;46039;-83
2021/08/22 02:55:44;;;;;;;;;2.00;0.00;;;;;18.63;66.85;101393.47;5045002;28;45402;-83
2021/08/22 02:58:09;;;;;;;;;0.00;0.00;;;;;19.05;66.83;101474.63;5044259;28;45292;-82
2021/08/22 03:00:35;;;;;;;;;0.00;0.00;;;;;18.78;66.49;101440.72;5044958;28;45404;-82
2021/08/22 03:03:00;;;;;;;;;0.00;0.00;;;;;18.93;66.66;101460.69;5042649;28;46097;-82
2021/08/22 03:05:25;;;;;;;;;0.00;0.00;;;;;18.92;66.46;101461.59;5042167;28;45906;-83
2021/08/22 03:07:50;;;;;;;;;1.00;0.00;;;;;18.69;66.63;101422.38;5043928;28;45428;-82
2021/08/22 03:10:16;;;;;;;;;0.00;0.00;;;;;18.91;66.52;101456.34;5044512;28;45456;-82
2021/08/22 03:12:41;;;;;;;;;0.00;0.00;;;;;18.59;66.28;101417.22;5043828;28;45304;-83
2021/08/22 03:15:08;;;;;;;;;0.00;0.00;;;;;18.49;66.27;101395.41;5041493;28;45393;-82
2021/08/22 03:17:34;;;;;;;;;0.00;0.00;;;;;18.34;66.43;101361.34;5057468;28;45370;-82
2021/08/22 03:20:02;;;;;;;;;0.00;0.00;;;;;18.57;66.15;101395.31;5042793;28;45482;-83
2021/08/22 03:22:28;;;;;;;;;0.00;0.00;;;;;18.35;65.78;101373.66;5041046;28;47069;-83
2021/08/22 03:24:53;;;;;;;;;0.00;0.00;;;;;18.38;65.86;101397.31;5044274;28;45407;-82
2021/08/22 03:27:19;;;;;;;;;0.00;0.00;;;;;18.34;65.87;101428.09;5041521;28;45522;-82
2021/08/22 03:29:44;;;;;;;;;0.00;0.00;;;;;18.13;65.79;101402.88;5055961;28;45800;-82
2021/08/22 03:32:09;;;;;;;;;0.00;0.00;;;;;18.49;65.80;101461.31;5043239;28;51060;-82
2021/08/22 03:34:35;;;;;;;;;0.00;0.00;;;;;18.01;65.84;101376.69;5044148;28;46201;-83
2021/08/22 03:37:00;;;;;;;;;0.00;0.00;;;;;18.48;65.76;101461.31;5042872;28;45454;-82
2021/08/22 03:39:25;;;;;;;;;0.00;0.00;;;;;18.48;65.69;101464.84;5043861;28;47631;-83
2021/08/22 03:41:50;;;;;;;;;0.00;0.00;;;;;18.38;65.25;101443.88;5038999;28;48907;-83
2021/08/22 03:44:16;;;;;;;;;0.00;0.00;;;;;18.28;65.63;101429.97;5040303;28;46056;-82
2021/08/22 03:46:41;;;;;;;;;0.00;0.00;;;;;18.45;65.58;101462.25;5051658;28;45485;-83
2021/08/22 03:49:06;;;;;;;;;0.00;0.00;;;;;18.29;65.73;101450.16;5055543;28;45486;-82
2021/08/22 03:51:32;;;;;;;;;0.00;0.00;;;;;17.70;65.27;101348.97;5052095;28;51919;-82
2021/08/22 03:53:57;;;;;;;;;0.25;0.00;;;;;17.99;65.56;101403.03;5055138;28;45461;-82
2021/08/22 03:56:22;;;;;;;;;1.00;0.00;;;;;17.96;65.74;101417.13;5040920;28;45661;-82
2021/08/22 03:58:48;;;;;;;;;0.00;0.00;;;;;18.29;65.70;101468.59;5043160;28;49952;-81
2021/08/22 04:01:13;;;;;;;;;0.00;0.00;;;;;17.62;65.29;101354.31;5044188;28;48280;-82
2021/08/22 04:03:40;;;;;;;;;0.00;0.00;;;;;17.89;65.06;101407.56;5043623;28;45548;-82
2021/08/22 04:06:06;;;;;;;;;0.00;0.00;;;;;18.11;65.24;101452.97;5039415;28;45536;-82
2021/08/22 04:08:34;;;;;;;;;0.00;0.00;;;;;17.44;65.39;101348.34;5055463;28;45329;-83
2021/08/22 04:10:59;;;;;;;;;0.00;0.00;;;;;17.76;65.62;101416.47;5053819;28;45681;-82
2021/08/22 04:13:25;;;;;;;;;0.00;0.00;;;;;18.13;65.42;101475.81;5052057;28;45627;-81
2021/08/22 04:15:50;;;;;;;;;0.00;0.00;;;;;17.86;65.44;101440.03;5052143;28;45518;-81
2021/08/22 04:18:16;;;;;;;;;0.00;0.00;;;;;17.54;65.29;101385.09;5052060;28;45678;-82
2021/08/22 04:20:42;;;;;;;;;0.00;0.00;;;;;17.66;65.20;101413.94;5054676;28;45444;-82
2021/08/22 04:23:08;;;;;;;;;0.00;0.00;;;;;17.70;65.60;101415.63;5054073;28;45364;-81
2021/08/22 04:25:34;;;;;;;;;0.00;0.00;;;;;17.65;65.06;101406.03;5051461;28;45756;-82
2021/08/22 04:27:59;;;;;;;;;0.50;0.00;;;;;18.07;64.95;101479.34;5048406;28;45484;-81
2021/08/22 04:30:25;;;;;;;;;0.00;0.00;;;;;18.08;64.95;101476.72;5043306;28;45476;-81
2021/08/22 04:32:50;;;;;;;;;0.00;0.00;;;;;17.85;65.17;101435.66;5041343;28;45374;-82
2021/08/22 04:35:15;;;;;;;;;0.00;0.00;;;;;17.66;65.15;101408.66;5033637;28;45424;-82
2021/08/22 04:37:42;;;;;;;;;0.00;0.00;;;;;18.05;65.21;101476.75;5052634;28;45479;-82
2021/08/22 04:40:08;;;;;;;;;0.25;0.00;;;;;17.60;64.85;101433.28;5048304;28;45475;-82
2021/08/22 04:42:33;;;;;;;;;0.00;0.00;;;;;17.58;65.37;101421.03;5042681;28;45473;-83
2021/08/22 04:45:00;;;;;;;;;0.00;0.00;;;;;17.47;65.28;101406.22;5054591;28;45340;-83
2021/08/22 04:47:25;;;;;;;;;0.00;0.00;;;;;17.43;65.26;101411.53;5048571;28;45427;-83
2021/08/22 04:49:51;;;;;;;;;0.25;0.00;;;;;17.57;65.27;101432.44;5053347;28;45432;-83
2021/08/22 04:52:16;;;;;;;;;0.00;0.00;;;;;17.82;64.98;101479.59;5054341;28;45502;-83
2021/08/22 04:54:42;;;;;;;;;0.00;0.00;;;;;17.21;65.35;101377.50;5051059;28;45505;-82
2021/08/22 04:57:07;;;;;;;;;0.00;0.00;;;;;17.85;65.20;101484.81;5051459;28;45481;-82
2021/08/22 04:59:33;;;;;;;;;0.00;0.00;;;;;17.64;65.22;101465.72;5054421;28;46316;-82
2021/08/22 05:01:58;;;;;;;;;0.00;0.00;;;;;17.80;64.81;101489.28;5042199;28;45418;-82
2021/08/22 05:04:23;;;;;;;;;0.00;0.00;;;;;17.82;65.11;101493.63;5042967;28;45532;-83
2021/08/22 05:06:49;;;;;;;;;1.00;1.00;;;;;17.77;64.75;101505.09;5041601;28;45538;-83
2021/08/22 05:09:14;;;;;;;;;0.00;0.00;;;;;17.41;65.10;101442.25;5039248;28;46051;-82
2021/08/22 05:11:39;;;;;;;;;0.00;0.00;;;;;17.70;65.45;101486.72;5039424;28;45392;-82
2021/08/22 05:14:05;;;;;;;;;0.00;0.00;;;;;17.70;64.92;101486.72;5053430;28;45371;-82
2021/08/22 05:16:30;;;;;;;;;0.00;0.00;;;;;17.59;64.75;101452.63;5043491;28;45457;-81
2021/08/22 05:18:57;;;;;;;;;0.00;0.00;;;;;17.51;65.01;101450.91;5042542;28;45307;-82
2021/08/22 05:21:22;;;;;;;;;0.00;0.00;;;;;17.54;64.42;101457.03;5042097;28;45296;-83
2021/08/22 05:23:48;;;;;;;;;0.00;0.00;;;;;17.41;64.64;101439.59;5038633;28;45634;-83
2021/08/22 05:26:13;;;;;;;;;0.00;0.00;;;;;17.77;64.89;101491.94;5023218;28;45597;-83
2021/08/22 05:28:38;;;;;;;;;0.00;0.00;;;;;17.76;64.88;101500.72;5024162;28;48433;-82
2021/08/22 05:31:04;;;;;;;;;0.00;0.00;;;;;17.68;64.53;101491.16;5042421;28;45650;-82
2021/08/22 05:33:29;;;;;;;;;0.00;0.00;;;;;17.71;64.57;101498.13;5042274;28;45577;-83
2021/08/22 05:35:54;;;;;;;;;0.00;0.00;;;;;17.79;64.33;101512.09;5039759;28;45510;-82
2021/08/22 05:38:19;;;;;;;;;0.00;0.00;;;;;17.79;64.27;101508.59;5053022;28;46217;-83
2021/08/22 05:40:45;;;;;;;;;0.00;0.00;;;;;17.09;64.22;101400.41;5051648;28;45465;-83
2021/08/22 05:43:10;;;;;;;;;0.00;0.00;;;;;17.19;64.38;101430.16;5030621;28;52893;-83
2021/08/22 05:45:35;;;;;;;;;0.00;0.00;;;;;17.28;64.86;101439.72;5050549;28;45391;-83
2021/08/22 05:48:01;;;;;;;;;0.00;0.00;;;;;17.64;64.65;101492.03;5052282;28;45490;-83
2021/08/22 05:50:26;;;;;;;;;0.00;0.00;;;;;17.75;64.47;101514.75;5053000;28;51155;-83
2021/08/22 05:52:51;;;;;;;;;0.00;0.00;;;;;17.35;64.54;101433.53;5050410;28;45440;-82
2021/08/22 05:55:17;;;;;;;;;0.00;0.00;;;;;17.81;64.15;101514.72;5045915;28;45363;-82
2021/08/22 05:57:43;;;;;;;;;0.00;0.00;;;;;17.51;64.46;101464.97;5041908;28;45374;-83
2021/08/22 06:00:09;;;;;;;;;2.00;0.00;;;;;17.43;63.80;101438.69;5038934;28;48349;-82
2021/08/22 06:02:38;;;;;;;;;0.00;0.00;;;;;17.69;64.33;101494.63;5038818;28;45707;-82
2021/08/22 06:05:05;;;;;;;;;0.00;0.00;;;;;17.48;64.54;101486.03;5041659;28;45473;-82
2021/08/22 06:07:30;;;;;;;;;0.00;0.00;;;;;17.69;64.56;101518.34;5057995;28;46440;-82
2021/08/22 06:09:58;;;;;;;;;0.00;0.00;;;;;17.35;64.21;101456.31;5054775;28;45428;-82
2021/08/22 06:12:23;;;;;;;;;0.00;0.00;;;;;17.74;64.53;101529.72;5041367;28;45608;-83
2021/08/22 06:14:48;;;;;;;;;0.00;0.00;;;;;17.77;64.12;101536.72;5053417;28;45683;-82
2021/08/22 06:17:13;;;;;;;;;0.00;0.00;;;;;17.70;64.11;101526.22;5052401;28;46221;-82
2021/08/22 06:19:39;;;;;;;;;0.00;0.00;;;;;17.69;63.95;101527.13;5050108;28;45409;-82
2021/08/22 06:22:04;;;;;;;;;0.00;0.00;;;;;17.83;64.44;101541.91;5044289;28;45523;-81
2021/08/22 06:24:31;;;;;;;;;0.00;0.00;;;;;17.51;64.22;101508.81;5043342;28;46822;-81
2021/08/22 06:26:56;;;;;;;;;0.00;0.00;;;;;17.64;64.46;101518.38;5052157;28;46445;-81
2021/08/22 06:29:22;;;;;;;;;0.00;0.00;;;;;17.75;64.48;101528.81;5051566;28;45289;-80
2021/08/22 06:31:48;;;;;;;;;0.00;0.00;;;;;17.86;64.63;101544.53;5042606;28;45434;-81
2021/08/22 06:34:14;;;;;;;;;0.50;0.50;;;;;17.39;64.45;101468.56;5039550;28;45551;-80
2021/08/22 06:36:39;;;;;;;;;0.00;0.00;;;;;17.60;64.68;101491.22;5042454;28;45447;-80
2021/08/22 06:39:06;;;;;;;;;0.00;0.00;;;;;17.98;63.97;101538.28;5022884;28;45320;-80
2021/08/22 06:41:31;;;;;;;;;0.00;0.00;;;;;18.02;64.15;101547.00;5047808;28;45793;-80
2021/08/22 06:43:57;;;;;;;;;0.00;0.00;;;;;17.91;64.40;101534.81;5047763;28;45514;-79
2021/08/22 06:46:22;;;;;;;;;0.00;0.00;;;;;18.14;64.15;101568.00;5045489;28;46181;-76
2021/08/22 06:48:48;;;;;;;;;0.00;0.00;;;;;18.21;63.59;101567.06;5052734;28;45503;-80
2021/08/22 06:51:13;;;;;;;;;0.00;0.00;;;;;18.29;63.92;101566.97;5050392;28;47646;-77
2021/08/22 06:53:38;;;;;;;;;0.00;0.00;;;;;18.26;64.01;101574.91;5047769;28;49253;-79
2021/08/22 06:56:04;;;;;;;;;0.00;0.00;;;;;18.18;64.29;101574.09;5048153;28;45408;-79
2021/08/22 06:58:29;;;;;;;;;0.00;0.00;;;;;18.08;64.10;101547.84;5048812;28;51190;-79
2021/08/22 07:00:54;;;;;;;;;0.00;0.00;;;;;18.21;63.76;101576.72;5048811;28;45308;-80
2021/08/22 07:03:19;;;;;;;;;0.75;0.75;;;;;18.03;64.02;101548.75;5040418;28;45513;-80
2021/08/22 07:05:45;;;;;;;;;0.00;0.00;;;;;18.21;63.98;101585.50;5051773;28;54846;-80
2021/08/22 07:08:10;;;;;;;;;0.00;0.00;;;;;17.83;64.22;101534.03;5043870;28;45250;-82
2021/08/22 07:10:35;;;;;;;;;0.00;0.00;;;;;18.15;64.08;101582.03;5049167;28;45296;-81
2021/08/22 07:13:01;;;;;;;;;0.00;0.00;;;;;18.13;64.33;101565.38;5051706;28;45391;-79
2021/08/22 07:15:26;;;;;;;;;0.00;0.00;;;;;18.05;64.39;101554.88;5049197;28;45459;-79
2021/08/22 07:17:51;;;;;;;;;0.00;0.00;;;;;18.26;63.79;101592.47;5051819;28;45408;-78
2021/08/22 07:20:17;;;;;;;;;0.00;0.00;;;;;18.23;63.64;101582.84;5053068;28;45230;-79
2021/08/22 07:22:42;;;;;;;;;0.00;0.00;;;;;18.21;63.88;101572.31;5056004;28;45233;-80
2021/08/22 07:25:08;;;;;;;;;0.00;0.00;;;;;18.26;63.58;101577.56;5054153;28;46412;-79
2021/08/22 07:27:33;;;;;;;;;0.00;0.00;;;;;18.25;63.59;101586.31;5056156;28;45391;-80
2021/08/22 07:29:58;;;;;;;;;0.00;0.00;;;;;18.00;63.36;101527.72;5054623;28;45500;-81
2021/08/22 07:32:24;;;;;;;;;0.00;0.00;;;;;18.34;63.12;101599.41;5055080;28;45400;-81
2021/08/22 07:34:49;;;;;;;;;0.00;0.00;;;;;18.08;63.32;101560.13;5058400;28;56506;-78
2021/08/22 07:37:14;;;;;;;;;0.00;0.00;;;;;18.18;63.11;101579.38;5036991;28;45597;-79
2021/08/22 07:39:40;;;;;;;;;1.00;0.00;;;;;18.32;63.34;101593.28;5051439;28;45380;-77
2021/08/22 07:42:05;;;;;;;;;0.00;0.00;;;;;18.14;63.52;101557.47;5053838;28;45605;-78
2021/08/22 07:44:30;;;;;;;;;0.00;0.00;;;;;18.32;63.38;101585.38;5056088;28;46011;-78
2021/08/22 07:46:57;;;;;;;;;0.25;0.00;;;;;18.30;63.20;101583.66;5056997;28;45498;-80
2021/08/22 07:49:22;;;;;;;;;0.00;0.00;;;;;18.28;63.36;101578.41;5038720;28;45655;-78
2021/08/22 07:51:47;;;;;;;;;0.00;0.00;;;;;18.47;63.20;101596.66;5045148;28;45483;-79
2021/08/22 07:54:14;;;;;;;;;0.00;0.00;;;;;18.42;63.18;101586.16;5052772;28;45407;-78
2021/08/22 07:56:41;;;;;;;;;0.00;0.00;;;;;18.65;62.79;101600.00;5040939;28;45388;-77
2021/08/22 07:59:07;;;;;;;;;0.00;0.00;;;;;18.34;62.55;101535.28;5037584;28;45408;-77
2021/08/22 08:01:32;;;;;;;;;1.25;0.00;;;;;18.80;62.15;101612.13;5054890;28;45426;-77
2021/08/22 08:03:57;;;;;;;;;0.00;0.00;;;;;18.26;62.03;101526.59;5054404;28;45530;-78
2021/08/22 08:06:23;;;;;;;;;0.00;0.00;;;;;18.82;62.56;101607.69;5050098;28;45739;-77
2021/08/22 08:08:48;;;;;;;;;0.75;0.00;;;;;18.89;61.94;101603.22;5042502;28;55112;-80
2021/08/22 08:11:13;;;;;;;;;1.00;0.00;;;;;18.83;62.11;101618.22;5055999;28;48198;-79
2021/08/22 08:13:39;;;;;;;;;0.00;0.00;;;;;18.83;61.77;101619.97;5049795;28;45465;-80
2021/08/22 08:16:04;;;;;;;;;0.00;0.00;;;;;18.87;61.76;101625.19;5053056;28;45411;-82
2021/08/22 08:18:30;;;;;;;;;1.00;1.00;;;;;18.90;62.13;101611.13;5056924;28;49782;-83
2021/08/22 08:20:56;;;;;;;;;0.00;0.00;;;;;19.08;61.67;101617.09;5057250;28;45421;-79
2021/08/22 08:23:21;;;;;;;;;0.00;0.00;;;;;19.02;61.62;101603.94;5049851;28;45509;-84
2021/08/22 08:25:46;;;;;;;;;0.00;0.00;;;;;19.17;61.38;101624.00;5051944;28;55757;-82
2021/08/22 08:28:12;;;;;;;;;0.00;0.00;;;;;19.09;61.09;101624.97;5045782;28;45482;-83
2021/08/22 08:30:37;;;;;;;;;0.00;0.00;;;;;19.14;61.09;101616.97;5048125;28;45617;-83
2021/08/22 08:33:02;;;;;;;;;1.00;0.00;;;;;19.12;61.12;101632.84;5052335;28;46223;-83
2021/08/22 08:35:28;;;;;;;;;0.00;0.00;;;;;19.11;61.17;101623.19;5051726;28;45399;-82
2021/08/22 08:37:53;;;;;;;;;0.00;0.00;;;;;19.17;60.83;101630.13;5042196;28;45471;-82
2021/08/22 08:40:20;;;;;;;;;0.00;0.00;;;;;19.07;61.30;101639.03;5046543;28;45514;-82
2021/08/22 08:42:54;;;;;;;;;1.50;0.00;;;;;19.10;61.37;101642.56;5052119;28;47013;-82
2021/08/22 08:45:38;;;;;;;;;0.00;0.00;;;;;19.28;61.10;101637.94;5047772;28;45325;-83
2021/08/22 08:48:04;;;;;;;;;0.00;0.00;;;;;19.23;60.56;101610.69;5052702;28;45423;-82
2021/08/22 08:50:43;;;;;;;;;0.00;0.00;;;;;19.55;60.63;101627.00;5051168;28;45357;-82
2021/08/22 08:53:14;;;;;;;;;0.00;0.00;;;;;19.74;59.96;101635.50;5053087;28;45636;-83
2021/08/22 08:55:43;;;;;;;;;0.00;0.00;;;;;19.80;59.72;101632.78;5050973;28;45407;-83
2021/08/22 08:58:08;;;;;;;;;0.00;0.00;;;;;19.73;59.62;101633.75;5047371;28;45669;-83
2021/08/22 09:00:35;;;;;;;;;0.00;0.00;;;;;19.81;59.17;101637.16;5051990;28;45430;-84
2021/08/22 09:03:05;;;;;;;;;0.00;0.00;;;;;19.94;58.45;101636.97;5050236;28;46260;-81
2021/08/22 09:05:51;;;;;;;;;0.00;0.00;;;;;19.95;58.49;101630.78;5049296;28;45553;-81
2021/08/22 09:08:35;;;;;;;;;0.00;0.00;;;;;19.91;58.33;101637.00;5061248;28;45224;-81
2021/08/22 09:11:15;;;;;;;;;0.00;0.00;;;;;19.91;57.97;101632.59;5046394;28;45410;-83
2021/08/22 09:14:18;;;;;;;;;0.00;0.00;;;;;19.93;58.15;101638.72;5052720;28;45965;-83
2021/08/22 09:17:21;;;;;;;;;0.25;0.00;;;;;20.04;57.76;101638.59;5054333;28;45540;-82
2021/08/22 09:20:07;;;;;;;;;0.00;0.00;;;;;20.15;57.89;101650.75;5051044;28;45303;-83
2021/08/22 09:23:10;;;;;;;;;0.00;0.00;;;;;20.23;57.60;101646.19;5041967;28;45641;-83
2021/08/22 09:26:13;;;;;;;;;0.00;0.00;;;;;20.31;56.83;101643.41;5050041;28;45560;-83
2021/08/22 09:28:56;;;;;;;;;0.00;0.00;;;;;20.39;57.10;101641.50;5047175;28;45376;-81
2021/08/22 09:31:59;;;;;;;;;0.00;0.00;;;;;20.35;56.29;101645.09;5046657;28;45471;-79
2021/08/22 09:35:03;;;;;;;;;0.00;0.00;;;;;20.31;56.84;101643.41;5041379;28;45496;-78
2021/08/22 09:37:28;;;;;;;;;0.00;0.00;;;;;20.32;56.93;101642.50;5049132;28;46698;-79
2021/08/22 09:40:31;;;;;;;;;0.00;0.00;;;;;20.27;56.19;101647.00;5046964;28;45364;-80
2021/08/22 09:43:40;;;;;;;;;0.00;0.00;;;;;20.08;56.52;101632.34;5050732;28;45328;-79
2021/08/22 09:47:02;;;;;;;;;0.00;0.00;;;;;20.07;57.38;101651.75;5046973;28;45443;-79
2021/08/22 09:50:07;;;;;;;;;0.00;0.00;;;;;20.03;57.30;101639.47;5051603;28;46856;-78
2021/08/22 09:52:37;;;;;;;;;0.00;0.00;;;;;19.97;57.24;101652.78;5046193;28;45420;-82
2021/08/22 09:55:20;;;;;;;;;0.00;0.00;;;;;19.91;57.21;101656.38;5049000;28;45498;-77
2021/08/22 09:58:10;;;;;;;;;0.00;0.00;;;;;19.92;57.17;101654.59;5054171;28;45513;-83
2021/08/22 10:00:53;;;;;;;;;0.00;0.00;;;;;19.95;57.13;101658.06;5049627;28;45566;-82
2021/08/22 10:03:43;;;;;;;;;0.00;0.00;;;;;20.05;57.36;101658.81;5054517;28;45514;-82
2021/08/22 10:06:24;;;;;;;;;0.00;0.00;;;;;20.20;57.28;101649.75;5052480;28;45269;-82
2021/08/22 10:09:06;;;;;;;;;0.00;0.00;;;;;20.27;57.30;101649.66;5047868;28;45466;-82
2021/08/22 10:11:39;;;;;;;;;0.00;0.00;;;;;20.41;57.05;101646.75;5048588;28;45698;-83
2021/08/22 10:14:09;;;;;;;;;0.00;0.00;;;;;20.32;56.61;101614.31;5049835;28;45344;-82
2021/08/22 10:16:36;;;;;;;;;0.00;0.00;;;;;20.85;55.67;101641.50;5047242;28;45454;-82
2021/08/22 10:19:03;;;;;;;;;0.00;0.00;;;;;21.00;55.51;101649.16;5047218;28;45349;-88
2021/08/22 10:21:28;;;;;;;;;0.00;0.00;;;;;21.19;53.65;101635.53;5032354;28;47288;-82
2021/08/22 10:24:19;;;;;;;;;0.00;0.00;;;;;21.21;54.80;101638.16;5052349;28;45550;-82
2021/08/22 10:26:57;;;;;;;;;0.00;0.00;;;;;21.18;53.93;101646.16;4974213;28;45529;-78
2021/08/22 10:29:30;;;;;;;;;0.00;0.00;;;;;20.94;53.70;101599.00;4990473;28;45423;-82
2021/08/22 10:31:55;;;;;;;;;0.00;0.00;;;;;21.28;52.15;101645.03;4990836;28;46503;-82
2021/08/22 10:34:26;;;;;;;;;0.00;0.00;;;;;21.17;52.82;101642.66;4992172;28;45556;-82
2021/08/22 10:36:52;;;;;;;;;0.00;0.00;;;;;20.91;53.31;101620.25;4992835;28;45611;-82
2021/08/22 10:39:26;;;;;;;;;0.00;0.00;;;;;20.92;53.32;101635.22;4990342;28;45756;-82
2021/08/22 10:42:00;;;;;;;;;0.00;0.00;;;;;20.93;53.91;101642.25;4990374;28;46416;-79
2021/08/22 10:44:41;;;;;;;;;0.00;0.00;;;;;20.99;53.36;101630.69;4991926;28;45889;-82
2021/08/22 10:47:14;;;;;;;;;0.00;0.00;;;;;20.68;53.54;101576.59;4989291;28;45383;-83
2021/08/22 10:49:54;;;;;;;;;0.00;0.00;;;;;21.07;53.79;101641.97;4991048;28;45536;-80
2021/08/22 10:52:37;;;;;;;;;0.00;0.00;;;;;21.11;54.07;101643.66;4990371;28;45580;-82
2021/08/22 10:55:14;;;;;;;;;0.00;0.00;;;;;21.17;53.99;101645.31;4988791;28;45643;-83
2021/08/22 10:57:48;;;;;;;;;0.00;0.00;;;;;21.27;53.64;101643.31;5009935;28;45459;-83
2021/08/22 11:00:18;;;;;;;;;0.00;0.00;;;;;21.11;53.70;101592.47;5011251;28;45542;-83
2021/08/22 11:02:43;;;;;;;;;0.00;0.00;;;;;21.33;53.04;101590.22;4978029;28;48210;-83
2021/08/22 11:05:16;;;;;;;;;0.00;0.00;;;;;21.67;53.00;101622.97;5049535;28;45502;-83
2021/08/22 11:07:46;;;;;;;;;0.00;0.00;;;;;21.49;52.21;101573.97;5056547;27;45537;-82
2021/08/22 11:10:15;;;;;;;;;0.00;0.00;;;;;21.68;52.11;101611.47;5058374;27;45253;-84
2021/08/22 11:12:41;;;;;;;;;0.00;0.00;;;;;21.79;50.54;101632.44;5042616;28;47452;-84
2021/08/22 11:15:08;;;;;;;;;0.00;0.00;;;;;21.79;50.38;101632.44;5053507;28;45527;-82
2021/08/22 11:17:34;;;;;;;;;0.00;0.00;;;;;21.47;51.15;101589.03;5051355;28;45337;-82
2021/08/22 11:20:14;;;;;;;;;0.00;0.00;;;;;21.60;50.67;101645.22;5052875;28;45468;-83
2021/08/22 11:22:39;;;;;;;;;0.00;0.00;;;;;21.06;50.66;101568.75;5058847;27;45351;-83
2021/08/22 11:25:07;;;;;;;;;0.00;0.00;;;;;21.41;49.63;101643.03;5053991;28;45367;-81
2021/08/22 11:27:33;;;;;;;;;0.00;0.00;;;;;21.18;50.10;101622.31;5043182;28;45522;-84
2021/08/22 11:30:06;;;;;;;;;0.00;0.00;;;;;21.23;50.40;101642.50;5065372;28;45456;-82
2021/08/22 11:32:32;;;;;;;;;0.00;0.00;;;;;20.89;50.90;101600.88;5048206;28;48560;-83